createdAt,value
2018-05-27T00:00:08.547Z,97.20
2018-05-27T00:02:37.688Z,98.50
2018-05-27T00:05:06.147Z,98.40
2018-05-27T00:07:33.870Z,98.30
2018-05-27T00:10:04.989Z,99.10
2018-05-27T00:12:32.500Z,99.70
2018-05-27T00:15:01.666Z,98.80
2018-05-27T00:17:29.180Z,98.70
2018-05-27T00:19:56.678Z,99.60
2018-05-27T00:22:25.472Z,98.50
2018-05-27T00:24:54.965Z,98.30
2018-05-27T00:27:24.121Z,97.90
2018-05-27T00:29:51.604Z,97.80
2018-05-27T00:32:19.161Z,99.80
2018-05-27T00:34:46.670Z,99.50
2018-05-27T00:37:14.138Z,99.60
2018-05-27T00:39:42.409Z,99.50
2018-05-27T00:42:10.880Z,99.90
2018-05-27T00:44:38.341Z,99.90
2018-05-27T00:47:07.757Z,99.70
2018-05-27T00:49:36.195Z,99.20
2018-05-27T00:52:03.704Z,99.90
2018-05-27T00:54:31.957Z,99.90
2018-05-27T00:57:01.123Z,99.90
2018-05-27T00:59:28.599Z,99.90
2018-05-27T01:01:56.153Z,99.90
2018-05-27T01:04:23.626Z,99.90
2018-05-27T01:06:51.109Z,99.90
2018-05-27T01:09:19.534Z,99.90
2018-05-27T01:11:47.933Z,99.30
2018-05-27T01:14:18.848Z,98.30
2018-05-27T01:16:46.357Z,99.00
2018-05-27T01:19:14.932Z,99.90
2018-05-27T01:21:42.446Z,99.90
2018-05-27T01:24:09.947Z,99.90
2018-05-27T01:26:41.893Z,99.90
2018-05-27T01:29:09.352Z,99.90
2018-05-27T01:31:37.777Z,99.90
2018-05-27T01:34:05.265Z,99.90
2018-05-27T01:36:32.732Z,99.90
2018-05-27T01:39:00.223Z,99.90
2018-05-27T01:41:28.511Z,99.90
2018-05-27T01:43:56.751Z,99.90
2018-05-27T01:46:24.231Z,99.90
2018-05-27T01:48:52.710Z,99.90
2018-05-27T01:51:20.177Z,99.90
2018-05-27T01:53:47.672Z,99.90
2018-05-27T01:56:15.158Z,99.90
2018-05-27T01:58:43.656Z,99.90
2018-05-27T02:01:11.167Z,99.90
2018-05-27T02:03:38.641Z,99.90
2018-05-27T02:06:06.111Z,99.90
2018-05-27T02:08:40.616Z,99.90
2018-05-27T02:11:08.248Z,99.90
2018-05-27T02:13:38.420Z,99.90
2018-05-27T02:16:06.656Z,99.90
2018-05-27T02:18:34.914Z,99.90
2018-05-27T02:21:03.180Z,99.90
2018-05-27T02:23:30.637Z,99.90
2018-05-27T02:25:58.100Z,99.90
2018-05-27T02:28:26.523Z,99.90
2018-05-27T02:30:54.005Z,99.90
2018-05-27T02:33:21.468Z,99.90
2018-05-27T02:35:49.982Z,99.90
2018-05-27T02:38:23.697Z,99.90
2018-05-27T02:40:52.229Z,99.90
2018-05-27T02:43:19.720Z,99.90
2018-05-27T02:45:47.196Z,99.90
2018-05-27T02:48:15.432Z,99.90
2018-05-27T02:50:43.826Z,99.90
2018-05-27T02:53:11.328Z,99.90
2018-05-27T02:55:38.802Z,99.90
2018-05-27T02:58:08.233Z,99.90
2018-05-27T03:00:36.622Z,99.90
2018-05-27T03:03:05.000Z,99.90
2018-05-27T03:05:33.472Z,99.90
2018-05-27T03:08:00.963Z,99.90
2018-05-27T03:10:28.417Z,99.90
2018-05-27T03:12:58.600Z,99.90
2018-05-27T03:15:26.093Z,99.90
2018-05-27T03:17:55.269Z,99.90
2018-05-27T03:20:22.952Z,99.90
2018-05-27T03:22:50.435Z,99.90
2018-05-27T03:25:19.592Z,99.90
2018-05-27T03:27:47.076Z,99.90
2018-05-27T03:30:15.330Z,99.90
2018-05-27T03:32:42.960Z,99.90
2018-05-27T03:35:10.420Z,99.90
2018-05-27T03:37:37.955Z,99.90
2018-05-27T03:40:07.215Z,99.90
2018-05-27T03:42:34.676Z,99.90
2018-05-27T03:45:03.067Z,99.90
2018-05-27T03:47:30.529Z,99.90
2018-05-27T03:49:59.781Z,99.90
2018-05-27T03:52:27.360Z,99.90
2018-05-27T03:54:55.751Z,99.90
2018-05-27T03:57:25.569Z,99.90
2018-05-27T03:59:53.966Z,99.90
2018-05-27T04:02:23.127Z,99.90
2018-05-27T04:05:02.416Z,99.90
2018-05-27T04:07:41.757Z,99.90
2018-05-27T04:10:10.183Z,99.90
2018-05-27T04:12:37.651Z,99.90
2018-05-27T04:15:05.863Z,99.90
2018-05-27T04:17:33.356Z,99.90
2018-05-27T04:20:00.835Z,99.90
2018-05-27T04:22:28.345Z,99.90
2018-05-27T04:24:55.836Z,99.90
2018-05-27T04:27:27.600Z,99.90
2018-05-27T04:29:55.055Z,99.90
2018-05-27T04:32:22.527Z,99.90
2018-05-27T04:34:50.000Z,99.90
2018-05-27T04:37:17.472Z,99.90
2018-05-27T04:39:49.298Z,99.90
2018-05-27T04:42:18.809Z,99.90
2018-05-27T04:44:46.302Z,99.90
2018-05-27T04:47:14.545Z,99.90
2018-05-27T04:49:43.501Z,99.90
2018-05-27T04:52:10.977Z,99.90
2018-05-27T04:54:38.458Z,99.90
2018-05-27T04:57:05.924Z,99.90
2018-05-27T04:59:33.385Z,99.90
2018-05-27T05:02:02.162Z,99.90
2018-05-27T05:04:30.702Z,99.90
2018-05-27T05:07:00.113Z,99.90
2018-05-27T05:09:28.660Z,99.90
2018-05-27T05:11:56.083Z,99.90
2018-05-27T05:14:24.491Z,99.90
2018-05-27T05:16:51.948Z,99.90
2018-05-27T05:19:20.185Z,99.90
2018-05-27T05:22:02.056Z,99.90
2018-05-27T05:24:30.554Z,99.90
2018-05-27T05:26:58.040Z,99.90
2018-05-27T05:29:26.490Z,99.90
2018-05-27T05:31:53.949Z,99.90
2018-05-27T05:34:21.415Z,99.90
2018-05-27T05:36:49.899Z,99.90
2018-05-27T05:39:18.359Z,99.90
2018-05-27T05:41:45.998Z,99.90
2018-05-27T05:44:14.214Z,99.90
2018-05-27T05:46:42.685Z,99.90
2018-05-27T05:49:10.131Z,99.90
2018-05-27T05:51:37.607Z,99.90
2018-05-27T05:54:05.083Z,99.90
2018-05-27T05:56:32.541Z,99.90
2018-05-27T05:59:00.795Z,99.90
2018-05-27T06:01:29.017Z,99.90
2018-05-27T06:03:57.529Z,99.90
2018-05-27T06:06:25.000Z,99.90
2018-05-27T06:08:54.339Z,99.90
2018-05-27T06:11:22.277Z,99.90
2018-05-27T06:13:49.737Z,99.90
2018-05-27T06:16:17.222Z,99.90
2018-05-27T06:18:45.061Z,99.90
2018-05-27T06:21:12.534Z,99.90
2018-05-27T06:23:40.110Z,99.90
2018-05-27T06:26:11.424Z,99.90
2018-05-27T06:28:38.899Z,99.90
2018-05-27T06:31:06.477Z,99.90
2018-05-27T06:33:33.935Z,99.90
2018-05-27T06:36:01.399Z,99.90
2018-05-27T06:38:28.866Z,99.90
2018-05-27T06:41:00.055Z,99.90
2018-05-27T06:43:27.535Z,99.90
2018-05-27T06:45:55.008Z,99.90
2018-05-27T06:48:25.610Z,99.90
2018-05-27T06:51:05.659Z,99.90
2018-05-27T06:53:33.303Z,99.90
2018-05-27T06:56:00.756Z,99.90
2018-05-27T06:58:31.384Z,99.90
2018-05-27T07:01:03.271Z,99.90
2018-05-27T07:03:30.736Z,99.90
2018-05-27T07:05:58.207Z,99.90
2018-05-27T07:08:25.668Z,99.90
2018-05-27T07:10:54.127Z,99.90
2018-05-27T07:13:21.605Z,99.90
2018-05-27T07:15:49.051Z,99.90
2018-05-27T07:18:17.402Z,99.90
2018-05-27T07:20:44.908Z,99.90
2018-05-27T07:23:13.350Z,99.90
2018-05-27T07:25:40.822Z,99.90
2018-05-27T07:28:09.329Z,99.90
2018-05-27T07:30:36.917Z,99.90
2018-05-27T07:33:04.430Z,99.90
2018-05-27T07:35:31.917Z,99.90
2018-05-27T07:38:00.424Z,99.90
2018-05-27T07:40:28.749Z,99.90
2018-05-27T07:42:59.482Z,99.90
2018-05-27T07:45:27.005Z,99.90
2018-05-27T07:48:01.723Z,99.90
2018-05-27T07:50:29.958Z,99.90
2018-05-27T07:52:58.412Z,99.90
2018-05-27T07:55:25.874Z,99.90
2018-05-27T07:57:56.790Z,99.90
2018-05-27T08:00:24.479Z,99.90
2018-05-27T08:02:51.937Z,99.90
2018-05-27T08:05:19.521Z,98.80
2018-05-27T08:07:46.980Z,99.40
2018-05-27T08:10:15.429Z,99.70
2018-05-27T08:12:43.224Z,99.90
2018-05-27T08:15:10.708Z,99.90
2018-05-27T08:17:38.211Z,99.00
2018-05-27T08:20:05.751Z,98.80
2018-05-27T08:22:33.164Z,98.30
2018-05-27T08:25:00.619Z,98.10
2018-05-27T08:27:28.085Z,98.10
2018-05-27T08:29:55.591Z,97.30
2018-05-27T08:32:23.060Z,97.60
2018-05-27T08:34:53.968Z,99.00
2018-05-27T08:37:22.215Z,96.80
2018-05-27T08:39:49.683Z,96.70
2018-05-27T08:42:19.136Z,95.60
2018-05-27T08:44:46.599Z,94.10
2018-05-27T08:47:14.065Z,94.60
2018-05-27T08:49:42.547Z,95.80
2018-05-27T08:52:10.021Z,95.60
2018-05-27T08:54:37.482Z,94.80
2018-05-27T08:57:04.956Z,94.00
2018-05-27T08:59:32.403Z,94.00
2018-05-27T09:01:59.873Z,94.40
2018-05-27T09:04:27.323Z,93.10
2018-05-27T09:06:55.675Z,90.00
2018-05-27T09:09:23.157Z,84.70
2018-05-27T09:11:50.603Z,86.20
2018-05-27T09:14:18.073Z,90.10
2018-05-27T09:16:45.537Z,89.10
2018-05-27T09:19:13.904Z,85.60
2018-05-27T09:21:41.360Z,80.40
2018-05-27T09:24:08.825Z,81.80
2018-05-27T09:26:36.291Z,80.10
2018-05-27T09:29:03.752Z,80.80
2018-05-27T09:31:33.128Z,82.60
2018-05-27T09:34:02.538Z,79.50
2018-05-27T09:36:30.132Z,74.70
2018-05-27T09:39:00.637Z,74.30
2018-05-27T09:41:28.220Z,74.20
2018-05-27T09:43:56.491Z,71.10
2018-05-27T09:46:25.833Z,74.40
2018-05-27T09:48:54.157Z,74.40
2018-05-27T09:51:22.421Z,70.90
2018-05-27T09:53:50.619Z,66.90
2018-05-27T09:56:22.092Z,63.80
2018-05-27T09:58:50.319Z,65.50
2018-05-27T10:01:17.801Z,65.40
2018-05-27T10:03:45.345Z,60.70
2018-05-27T10:06:19.782Z,60.40
2018-05-27T10:08:48.026Z,63.20
2018-05-27T10:11:15.519Z,63.20
2018-05-27T10:13:43.774Z,63.60
2018-05-27T10:16:11.467Z,63.50
2018-05-27T10:18:39.861Z,63.30
2018-05-27T10:21:07.377Z,63.30
2018-05-27T10:23:34.834Z,60.50
2018-05-27T10:26:02.372Z,56.90
2018-05-27T10:28:29.782Z,58.90
2018-05-27T10:30:58.309Z,59.80
2018-05-27T10:33:25.800Z,62.90
2018-05-27T10:35:54.205Z,64.60
2018-05-27T10:38:22.536Z,58.70
2018-05-27T10:40:49.997Z,58.80
2018-05-27T10:43:17.452Z,55.90
2018-05-27T10:45:44.958Z,57.80
2018-05-27T10:48:12.420Z,58.30
2018-05-27T10:50:39.876Z,64.10
2018-05-27T10:53:07.382Z,59.10
2018-05-27T10:55:35.921Z,59.40
2018-05-27T10:58:03.351Z,59.20
2018-05-27T11:00:30.817Z,61.70
2018-05-27T11:02:58.628Z,57.00
2018-05-27T11:05:26.072Z,54.20
2018-05-27T11:07:56.878Z,56.10
2018-05-27T11:10:28.599Z,52.20
2018-05-27T11:12:56.074Z,52.10
2018-05-27T11:15:23.525Z,52.10
2018-05-27T11:17:50.993Z,53.40
2018-05-27T11:20:33.590Z,57.10
2018-05-27T11:23:02.092Z,57.50
2018-05-27T11:25:30.696Z,57.70
2018-05-27T11:27:58.961Z,55.00
2018-05-27T11:30:27.210Z,53.00
2018-05-27T11:32:55.678Z,53.00
2018-05-27T11:35:23.147Z,51.90
2018-05-27T11:37:50.621Z,53.10
2018-05-27T11:40:19.043Z,53.40
2018-05-27T11:42:47.484Z,51.40
2018-05-27T11:45:15.930Z,51.50
2018-05-27T11:47:44.324Z,51.70
2018-05-27T11:50:24.998Z,49.40
2018-05-27T11:52:52.548Z,50.40
2018-05-27T11:55:20.993Z,53.00
2018-05-27T11:57:48.516Z,52.70
2018-05-27T12:00:15.982Z,55.70
2018-05-27T12:02:45.458Z,59.80
2018-05-27T12:05:12.944Z,55.80
2018-05-27T12:07:40.407Z,59.00
2018-05-27T12:10:07.888Z,69.00
2018-05-27T12:12:35.377Z,59.70
2018-05-27T12:15:03.774Z,56.50
2018-05-27T12:17:32.249Z,53.90
2018-05-27T12:19:59.711Z,58.80
2018-05-27T12:22:28.175Z,57.90
2018-05-27T12:24:57.751Z,56.40
2018-05-27T12:27:26.156Z,59.80
2018-05-27T12:29:53.718Z,58.30
2018-05-27T12:32:22.460Z,57.70
2018-05-27T12:34:53.355Z,53.90
2018-05-27T12:37:20.867Z,53.70
2018-05-27T12:39:48.383Z,49.70
2018-05-27T12:42:15.871Z,58.30
2018-05-27T12:44:44.168Z,54.00
2018-05-27T12:47:12.398Z,63.70
2018-05-27T12:49:39.915Z,63.70
2018-05-27T12:52:11.155Z,61.00
2018-05-27T12:54:41.852Z,60.90
2018-05-27T12:57:10.096Z,58.10
2018-05-27T12:59:37.591Z,58.20
2018-05-27T13:02:08.125Z,61.20
2018-05-27T13:04:36.379Z,61.30
2018-05-27T13:07:03.846Z,61.30
2018-05-27T13:09:32.726Z,61.60
2018-05-27T13:12:00.182Z,61.80
2018-05-27T13:14:27.647Z,66.50
2018-05-27T13:16:55.260Z,69.40
2018-05-27T13:19:22.640Z,69.30
2018-05-27T13:21:52.109Z,67.20
2018-05-27T13:24:22.251Z,68.90
2018-05-27T13:26:53.443Z,68.50
2018-05-27T13:29:21.844Z,66.40
2018-05-27T13:31:50.075Z,70.00
2018-05-27T13:34:25.275Z,70.10
2018-05-27T13:36:57.259Z,75.10
2018-05-27T13:39:25.506Z,76.30
2018-05-27T13:41:54.719Z,77.00
2018-05-27T13:44:22.208Z,76.80
2018-05-27T13:46:56.087Z,72.20
2018-05-27T13:49:23.573Z,75.00
2018-05-27T13:51:51.016Z,73.10
2018-05-27T13:54:18.500Z,71.70
2018-05-27T13:56:46.061Z,73.20
2018-05-27T13:59:16.915Z,72.40
2018-05-27T14:01:45.157Z,74.30
2018-05-27T14:04:13.699Z,74.40
2018-05-27T14:06:41.935Z,74.40
2018-05-27T14:09:09.441Z,74.40
2018-05-27T14:11:36.909Z,75.60
2018-05-27T14:14:06.363Z,74.30
2018-05-27T14:16:34.549Z,74.20
2018-05-27T14:19:02.060Z,72.20
2018-05-27T14:21:29.603Z,73.20
2018-05-27T14:23:58.007Z,74.80
2018-05-27T14:26:25.513Z,78.20
2018-05-27T14:28:55.748Z,77.70
2018-05-27T14:31:24.009Z,76.80
2018-05-27T14:33:53.468Z,76.70
2018-05-27T14:36:25.287Z,77.20
2018-05-27T14:38:53.538Z,73.40
2018-05-27T14:41:25.441Z,73.30
2018-05-27T14:43:53.892Z,76.70
2018-05-27T14:46:21.361Z,79.10
2018-05-27T14:48:52.637Z,81.80
2018-05-27T14:51:32.385Z,81.80
2018-05-27T14:54:08.796Z,77.10
2018-05-27T14:56:39.593Z,76.90
2018-05-27T14:59:09.437Z,80.10
2018-05-27T15:01:39.814Z,79.40
2018-05-27T15:04:24.962Z,83.20
2018-05-27T15:06:59.410Z,83.20
2018-05-27T15:09:32.625Z,80.50
2018-05-27T15:12:06.176Z,81.50
2018-05-27T15:14:38.034Z,83.50
2018-05-27T15:17:12.203Z,81.70
2018-05-27T15:19:44.269Z,82.00
2018-05-27T15:22:16.540Z,82.00
2018-05-27T15:24:50.495Z,79.40
2018-05-27T15:27:21.285Z,77.20
2018-05-27T15:29:53.763Z,78.50
2018-05-27T15:32:28.288Z,81.80
2018-05-27T15:35:02.197Z,79.50
2018-05-27T15:37:38.377Z,78.40
2018-05-27T15:40:12.211Z,79.30
2018-05-27T15:42:44.428Z,79.20
2018-05-27T15:45:16.619Z,79.00
2018-05-27T15:47:46.544Z,78.50
2018-05-27T15:50:17.074Z,79.60
2018-05-27T15:52:52.897Z,79.60
2018-05-27T15:55:29.000Z,79.80
2018-05-27T15:58:00.368Z,80.50
2018-05-27T16:00:36.068Z,80.10
2018-05-27T16:03:06.644Z,82.40
2018-05-27T16:05:36.765Z,82.30
2018-05-27T16:08:11.365Z,81.30
2018-05-27T16:10:45.468Z,79.70
2018-05-27T16:13:16.445Z,82.40
2018-05-27T16:15:47.318Z,82.80
2018-05-27T16:20:57.662Z,84.00
2018-05-27T16:23:27.957Z,83.40
2018-05-27T16:25:59.495Z,84.80
2018-05-27T16:28:32.278Z,84.70
2018-05-27T16:31:04.289Z,83.70
2018-05-27T16:33:37.951Z,83.00
2018-05-27T16:36:12.368Z,83.00
2018-05-27T16:38:44.817Z,83.20
2018-05-27T16:43:51.071Z,85.10
2018-05-27T16:46:22.976Z,85.80
2018-05-27T16:48:53.388Z,85.80
2018-05-27T16:51:30.192Z,86.30
2018-05-27T16:54:01.659Z,86.00
2018-05-27T16:56:36.220Z,86.30
2018-05-27T16:59:09.333Z,85.70
2018-05-27T17:01:39.686Z,86.90
2018-05-27T17:04:12.642Z,86.60
2018-05-27T17:06:46.085Z,86.60
2018-05-27T17:11:59.854Z,87.00
2018-05-27T17:14:33.297Z,88.20
2018-05-27T17:17:04.544Z,88.20
2018-05-27T17:19:37.257Z,88.00
2018-05-27T17:22:15.332Z,88.90
2018-05-27T17:24:46.100Z,90.80
2018-05-27T17:27:25.094Z,89.50
2018-05-27T17:29:58.323Z,89.40
2018-05-27T17:32:29.493Z,89.40
2018-05-27T17:35:02.302Z,90.50
2018-05-27T17:37:33.854Z,90.40
2018-05-27T17:40:09.867Z,90.70
2018-05-27T17:42:44.091Z,91.00
2018-05-27T17:45:17.643Z,91.10
2018-05-27T17:47:48.063Z,91.60
2018-05-27T17:50:19.116Z,91.60
2018-05-27T17:53:01.230Z,92.10
2018-05-27T17:55:35.316Z,91.70
2018-05-27T17:58:06.155Z,91.60
2018-05-27T18:00:39.356Z,92.60
2018-05-27T18:03:11.772Z,92.60
2018-05-27T18:05:51.773Z,92.40
2018-05-27T18:08:24.764Z,92.40
2018-05-27T18:10:56.359Z,92.80
2018-05-27T18:13:30.177Z,93.00
2018-05-27T18:16:14.847Z,93.00
2018-05-27T18:21:36.996Z,94.20
2018-05-27T18:27:08.152Z,95.20
2018-05-27T18:29:35.938Z,94.90
2018-05-27T18:32:04.317Z,95.60
2018-05-27T18:34:31.748Z,94.60
2018-05-27T18:36:59.868Z,95.70
2018-05-27T18:39:27.298Z,95.70
2018-05-27T18:41:55.018Z,95.50
2018-05-27T18:44:23.078Z,96.30
2018-05-27T18:46:50.503Z,96.40
2018-05-27T18:49:17.965Z,96.50
2018-05-27T18:51:45.426Z,96.40
2018-05-27T18:54:12.851Z,95.90
2018-05-27T18:56:40.309Z,95.80
2018-05-27T18:59:07.835Z,95.90
2018-05-27T19:01:35.243Z,96.50
2018-05-27T19:04:02.678Z,96.50
2018-05-27T19:06:30.862Z,96.80
2018-05-27T19:08:58.363Z,96.80
2018-05-27T19:11:26.820Z,96.80
2018-05-27T19:13:54.517Z,97.00
2018-05-27T19:16:23.558Z,98.10
2018-05-27T19:18:50.985Z,98.40
2018-05-27T19:21:19.178Z,99.80
2018-05-27T19:23:49.129Z,99.50
2018-05-27T19:26:16.546Z,99.50
2018-05-27T19:28:44.754Z,99.90
2018-05-27T19:31:12.955Z,99.90
2018-05-27T19:33:40.758Z,99.80
2018-05-27T19:36:09.599Z,98.80
2018-05-27T19:38:37.050Z,98.80
2018-05-27T19:41:05.269Z,99.80
2018-05-27T19:43:32.786Z,99.90
2018-05-27T19:46:00.727Z,99.90
2018-05-27T19:48:37.862Z,99.90
2018-05-27T19:51:05.741Z,99.90
2018-05-27T19:53:33.158Z,99.90
2018-05-27T19:56:01.274Z,99.90
2018-05-27T19:58:28.894Z,99.90
2018-05-27T20:00:56.344Z,99.90
2018-05-27T20:03:23.851Z,99.90
2018-05-27T20:05:51.307Z,99.90
2018-05-27T20:08:18.763Z,99.90
2018-05-27T20:10:47.702Z,99.90
2018-05-27T20:13:15.229Z,99.90
2018-05-27T20:15:43.890Z,99.90
2018-05-27T20:18:11.326Z,99.90
2018-05-27T20:20:38.858Z,99.90
2018-05-27T20:23:06.752Z,99.90
2018-05-27T20:25:34.206Z,99.90
2018-05-27T20:28:02.714Z,99.90
2018-05-27T20:30:30.686Z,99.90
2018-05-27T20:32:58.511Z,99.90
2018-05-27T20:35:25.936Z,99.90
2018-05-27T20:37:54.150Z,99.90
2018-05-27T20:40:22.333Z,99.90
2018-05-27T20:42:50.266Z,99.90
2018-05-27T20:45:18.663Z,99.90
2018-05-27T20:47:46.762Z,99.90
2018-05-27T20:50:14.270Z,99.90
2018-05-27T20:52:42.757Z,99.90
2018-05-27T20:55:10.951Z,99.90
2018-05-27T20:57:38.374Z,99.90
2018-05-27T21:00:05.801Z,99.90
2018-05-27T21:02:34.782Z,99.90
2018-05-27T21:05:02.495Z,99.90
2018-05-27T21:07:30.815Z,99.90
2018-05-27T21:09:58.387Z,99.90
2018-05-27T21:15:04.587Z,99.90
2018-05-27T21:17:32.279Z,99.90
2018-05-27T21:20:00.834Z,99.90
2018-05-27T21:22:28.299Z,99.90
2018-05-27T21:24:55.710Z,99.90
2018-05-27T21:27:23.162Z,99.90
2018-05-27T21:29:50.623Z,99.90
2018-05-27T21:32:18.692Z,99.90
2018-05-27T21:34:46.478Z,99.90
2018-05-27T21:37:15.198Z,99.90
2018-05-27T21:39:42.669Z,99.90
2018-05-27T21:42:11.610Z,99.90
2018-05-27T21:44:39.457Z,99.90
2018-05-27T21:47:07.591Z,99.90
2018-05-27T21:49:35.330Z,99.90
2018-05-27T21:52:03.727Z,99.90
2018-05-27T21:54:33.880Z,99.90
2018-05-27T21:57:03.057Z,99.90
2018-05-27T21:59:30.671Z,99.90
2018-05-27T22:01:59.485Z,99.90
2018-05-27T22:04:26.909Z,99.90
2018-05-27T22:06:54.353Z,99.90
2018-05-27T22:09:22.558Z,99.90
2018-05-27T22:11:50.998Z,99.90
2018-05-27T22:14:19.330Z,99.90
2018-05-27T22:16:46.782Z,99.90
2018-05-27T22:19:14.870Z,99.90
2018-05-27T22:21:42.309Z,99.90
2018-05-27T22:24:10.254Z,99.90
2018-05-27T22:26:37.691Z,99.90
2018-05-27T22:29:06.233Z,99.90
2018-05-27T22:31:34.039Z,99.90
2018-05-27T22:34:02.763Z,99.90
2018-05-27T22:36:30.458Z,99.90
2018-05-27T22:38:58.129Z,99.90
2018-05-27T22:41:26.347Z,99.90
2018-05-27T22:43:53.872Z,99.90
2018-05-27T22:46:22.618Z,99.90
2018-05-27T22:48:50.275Z,99.90
2018-05-27T22:51:17.704Z,99.90
2018-05-27T22:53:45.162Z,99.90
2018-05-27T22:56:12.678Z,99.90
2018-05-27T22:58:40.750Z,99.90
2018-05-27T23:01:08.263Z,99.90
2018-05-27T23:03:35.702Z,99.90
2018-05-27T23:06:04.019Z,99.90
2018-05-27T23:08:31.513Z,99.90
2018-05-27T23:11:00.001Z,99.90
2018-05-27T23:13:28.227Z,99.90
2018-05-27T23:15:55.650Z,99.90
2018-05-27T23:18:23.850Z,99.90
2018-05-27T23:20:51.670Z,99.90
2018-05-27T23:23:19.365Z,99.90
2018-05-27T23:25:46.797Z,99.90
2018-05-27T23:28:14.358Z,99.90
2018-05-27T23:30:44.387Z,99.90
2018-05-27T23:33:12.775Z,99.90
2018-05-27T23:35:40.961Z,99.90
2018-05-27T23:38:08.799Z,99.90
2018-05-27T23:40:36.218Z,99.90
2018-05-27T23:43:04.203Z,99.90
2018-05-27T23:45:32.930Z,99.90
2018-05-27T23:48:01.125Z,99.90
2018-05-27T23:50:28.571Z,99.90
2018-05-27T23:52:56.022Z,99.90
2018-05-27T23:55:24.721Z,99.90
2018-05-27T23:57:52.236Z,99.90
